createdAt,value
2019-04-01T00:01:48.280Z,2.67
2019-04-01T00:04:15.934Z,2.07
2019-04-01T00:06:43.514Z,2.50
2019-04-01T00:09:11.187Z,2.43
2019-04-01T00:11:38.951Z,2.60
2019-04-01T00:14:06.744Z,2.23
2019-04-01T00:16:34.498Z,1.40
2019-04-01T00:19:03.463Z,1.60
2019-04-01T00:21:31.287Z,2.30
2019-04-01T00:23:58.820Z,1.30
2019-04-01T00:26:27.489Z,1.40
2019-04-01T00:28:55.194Z,1.80
2019-04-01T00:31:22.711Z,3.20
2019-04-01T00:33:50.535Z,1.07
2019-04-01T00:36:18.176Z,1.00
2019-04-01T00:38:46.102Z,1.23
2019-04-01T00:41:13.831Z,1.53
2019-04-01T00:43:53.029Z,1.40
2019-04-01T00:46:20.586Z,2.03
2019-04-01T00:48:48.110Z,2.03
2019-04-01T00:51:15.928Z,2.30
2019-04-01T00:53:43.525Z,1.50
2019-04-01T00:56:11.659Z,1.83
2019-04-01T00:58:39.232Z,1.87
2019-04-01T01:01:06.969Z,1.73
2019-04-01T01:03:34.648Z,1.10
2019-04-01T01:06:02.348Z,1.37
2019-04-01T01:08:30.123Z,1.70
2019-04-01T01:10:57.713Z,1.80
2019-04-01T01:13:25.243Z,1.90
2019-04-01T01:15:52.731Z,1.47
2019-04-01T01:18:20.429Z,1.97
2019-04-01T01:20:48.123Z,1.30
2019-04-01T01:23:15.859Z,1.30
2019-04-01T01:25:43.587Z,2.03
2019-04-01T01:28:12.029Z,1.60
2019-04-01T01:30:40.767Z,1.87
2019-04-01T01:33:08.223Z,1.83
2019-04-01T01:35:35.785Z,1.37
2019-04-01T01:38:03.421Z,1.53
2019-04-01T01:40:30.906Z,1.33
2019-04-01T01:42:58.445Z,1.67
2019-04-01T01:45:26.074Z,1.60
2019-04-01T01:47:53.615Z,2.10
2019-04-01T01:50:21.166Z,1.30
2019-04-01T01:52:48.771Z,1.37
2019-04-01T01:55:17.380Z,1.97
2019-04-01T01:57:45.225Z,2.50
2019-04-01T02:00:13.619Z,1.30
2019-04-01T02:02:41.506Z,1.50
2019-04-01T02:05:10.204Z,1.90
2019-04-01T02:07:37.797Z,1.43
2019-04-01T02:10:05.845Z,1.60
2019-04-01T02:12:33.541Z,2.30
2019-04-01T02:15:01.136Z,1.80
2019-04-01T02:17:28.832Z,1.90
2019-04-01T02:19:56.388Z,1.50
2019-04-01T02:22:23.918Z,1.87
2019-04-01T02:24:51.408Z,1.80
2019-04-01T02:27:18.997Z,1.50
2019-04-01T02:29:46.628Z,1.30
2019-04-01T02:32:14.290Z,1.60
2019-04-01T02:34:42.400Z,1.60
2019-04-01T02:37:10.170Z,1.60
2019-04-01T02:39:37.760Z,2.00
2019-04-01T02:42:05.568Z,2.63
2019-04-01T02:44:33.200Z,2.07
2019-04-01T02:47:00.771Z,1.80
2019-04-01T02:49:28.285Z,1.67
2019-04-01T02:51:55.683Z,1.80
2019-04-01T02:54:23.496Z,1.80
2019-04-01T02:56:51.062Z,1.93
2019-04-01T02:59:18.651Z,2.50
2019-04-01T03:01:46.393Z,1.97
2019-04-01T03:04:14.018Z,1.63
2019-04-01T03:06:42.030Z,2.53
2019-04-01T03:09:09.566Z,1.90
2019-04-01T03:11:37.142Z,1.80
2019-04-01T03:14:04.776Z,2.83
2019-04-01T03:16:32.276Z,4.50
2019-04-01T03:18:59.851Z,2.00
2019-04-01T03:21:27.579Z,1.77
2019-04-01T03:23:55.162Z,2.90
2019-04-01T03:26:23.862Z,2.40
2019-04-01T03:28:51.541Z,2.30
2019-04-01T03:31:19.182Z,2.20
2019-04-01T03:33:46.748Z,1.53
2019-04-01T03:36:14.394Z,2.53
2019-04-01T03:38:42.201Z,2.73
2019-04-01T03:41:10.057Z,2.47
2019-04-01T03:43:37.674Z,2.10
2019-04-01T03:46:05.303Z,2.43
2019-04-01T03:48:32.994Z,2.57
2019-04-01T03:51:00.825Z,1.53
2019-04-01T03:53:28.501Z,2.47
2019-04-01T03:55:56.187Z,2.30
2019-04-01T03:58:23.701Z,2.30
2019-04-01T04:00:52.590Z,2.60
2019-04-01T04:03:20.202Z,3.00
2019-04-01T04:05:47.948Z,2.73
2019-04-01T04:08:15.572Z,2.67
2019-04-01T04:10:43.345Z,3.15
2019-04-01T04:13:11.556Z,3.17
2019-04-01T04:15:39.503Z,2.73
2019-04-01T04:18:07.505Z,3.30
2019-04-01T04:20:35.048Z,2.63
2019-04-01T04:23:02.664Z,4.00
2019-04-01T04:25:30.600Z,4.40
2019-04-01T04:27:58.518Z,3.30
2019-04-01T04:30:27.305Z,2.77
2019-04-01T04:32:55.122Z,3.13
2019-04-01T04:35:22.709Z,3.30
2019-04-01T04:37:50.306Z,3.30
2019-04-01T04:40:18.905Z,5.03
2019-04-01T04:42:46.605Z,2.90
2019-04-01T04:45:19.773Z,3.57
2019-04-01T04:47:47.497Z,3.30
2019-04-01T04:50:15.233Z,2.77
2019-04-01T04:52:43.116Z,3.20
2019-04-01T04:55:11.156Z,3.07
2019-04-01T04:57:38.832Z,4.07
2019-04-01T05:00:06.713Z,3.97
2019-04-01T05:02:34.396Z,3.40
2019-04-01T05:05:02.441Z,5.23
2019-04-01T05:07:31.530Z,3.47
2019-04-01T05:09:59.382Z,3.23
2019-04-01T05:12:26.995Z,3.77
2019-04-01T05:14:54.613Z,4.10
2019-04-01T05:17:22.338Z,5.50
2019-04-01T05:19:49.997Z,5.50
2019-04-01T05:22:20.950Z,5.97
2019-04-01T05:24:51.155Z,6.00
2019-04-01T05:27:22.554Z,4.70
2019-04-01T05:29:53.022Z,4.50
2019-04-01T05:32:21.145Z,4.30
2019-04-01T05:34:52.366Z,3.87
2019-04-01T05:37:20.068Z,3.90
2019-04-01T05:39:47.692Z,3.77
2019-04-01T05:42:16.185Z,3.67
2019-04-01T05:44:44.719Z,4.43
2019-04-01T05:47:12.192Z,4.07
2019-04-01T05:50:12.859Z,3.60
2019-04-01T05:52:41.374Z,4.10
2019-04-01T05:55:09.251Z,3.97
2019-04-01T05:57:37.095Z,3.60
2019-04-01T06:00:04.852Z,3.70
2019-04-01T06:02:32.557Z,3.40
2019-04-01T06:05:01.294Z,4.00
2019-04-01T06:07:29.967Z,3.90
2019-04-01T06:09:57.673Z,4.00
2019-04-01T06:12:26.387Z,5.30
2019-04-01T06:14:54.080Z,4.70
2019-04-01T06:17:21.808Z,5.50
2019-04-01T06:19:50.064Z,5.13
2019-04-01T06:22:17.691Z,5.10
2019-04-01T06:24:49.192Z,5.03
2019-04-01T06:27:16.852Z,4.37
2019-04-01T06:29:47.450Z,4.53
2019-04-01T06:32:15.006Z,3.13
2019-04-01T06:34:52.744Z,4.00
2019-04-01T06:37:11.919Z,3.90
2019-04-01T06:39:40.123Z,3.70
2019-04-01T06:42:07.906Z,4.37
2019-04-01T06:44:35.684Z,3.47
2019-04-01T06:47:03.511Z,3.40
2019-04-01T06:49:32.198Z,3.77
2019-04-01T06:51:59.817Z,3.80
2019-04-01T06:54:27.424Z,3.50
2019-04-01T06:56:55.014Z,3.40
2019-04-01T06:59:22.599Z,3.30
2019-04-01T07:01:50.176Z,3.43
2019-04-01T07:04:18.965Z,3.47
2019-04-01T07:06:46.461Z,4.00
2019-04-01T07:09:14.002Z,2.50
2019-04-01T07:11:42.182Z,2.67
2019-04-01T07:14:09.838Z,2.70
2019-04-01T07:16:40.026Z,2.67
2019-04-01T07:19:07.025Z,2.77
2019-04-01T07:21:34.623Z,2.57
2019-04-01T07:24:02.290Z,2.40
2019-04-01T07:26:30.054Z,3.20
2019-04-01T07:28:57.741Z,2.50
2019-04-01T07:31:25.505Z,3.20
2019-04-01T07:33:53.583Z,2.80
2019-04-01T07:36:21.255Z,2.27
2019-04-01T07:38:51.209Z,2.47
2019-04-01T07:41:18.865Z,2.13
2019-04-01T07:43:46.513Z,2.20
2019-04-01T07:46:14.191Z,2.23
2019-04-01T07:48:42.438Z,2.00
2019-04-01T07:51:12.855Z,1.60
2019-04-01T07:53:41.046Z,1.90
2019-04-01T07:56:08.748Z,2.40
2019-04-01T07:58:36.505Z,3.20
2019-04-01T08:01:04.207Z,2.27
2019-04-01T08:03:31.957Z,1.80
2019-04-01T08:05:59.524Z,2.40
2019-04-01T08:08:26.985Z,2.30
2019-04-01T08:10:54.737Z,1.93
2019-04-01T08:13:22.333Z,2.30
2019-04-01T08:15:49.913Z,1.93
2019-04-01T08:18:17.473Z,2.00
2019-04-01T08:20:45.086Z,1.80
2019-04-01T08:23:12.765Z,2.10
2019-04-01T08:25:40.596Z,1.90
2019-04-01T08:28:09.219Z,1.90
2019-04-01T08:30:36.840Z,1.70
2019-04-01T08:33:04.576Z,1.97
2019-04-01T08:35:32.118Z,2.37
2019-04-01T08:37:59.799Z,2.67
2019-04-01T08:40:27.347Z,1.83
2019-04-01T08:42:54.843Z,1.90
2019-04-01T08:45:22.417Z,2.43
2019-04-01T08:47:50.119Z,1.77
2019-04-01T08:50:18.023Z,2.20
2019-04-01T08:52:46.040Z,2.20
2019-04-01T08:55:13.503Z,1.87
2019-04-01T08:57:41.094Z,2.20
2019-04-01T09:00:09.206Z,2.70
2019-04-01T09:02:36.961Z,2.37
2019-04-01T09:05:06.341Z,2.53
2019-04-01T09:07:33.927Z,3.10
2019-04-01T09:10:02.634Z,2.80
2019-04-01T09:12:31.225Z,2.33
2019-04-01T09:14:59.595Z,2.63
2019-04-01T09:17:27.218Z,1.87
2019-04-01T09:19:54.823Z,2.50
2019-04-01T09:22:22.384Z,2.10
2019-04-01T09:24:50.437Z,1.60
2019-04-01T09:27:18.077Z,2.33
2019-04-01T09:29:45.907Z,2.57
2019-04-01T09:32:13.510Z,2.40
2019-04-01T09:34:42.378Z,2.10
2019-04-01T09:37:09.906Z,2.30
2019-04-01T09:39:37.510Z,2.37
2019-04-01T09:42:05.098Z,1.97
2019-04-01T09:44:37.097Z,2.30
2019-04-01T09:47:01.892Z,2.07
2019-04-01T09:49:29.884Z,2.50
2019-04-01T09:51:57.408Z,2.33
2019-04-01T09:54:25.120Z,2.23
2019-04-01T09:56:52.613Z,2.10
2019-04-01T09:59:20.300Z,2.40
2019-04-01T10:01:47.813Z,2.53
2019-04-01T10:04:15.383Z,2.90
2019-04-01T10:06:43.167Z,2.30
2019-04-01T10:09:10.857Z,2.33
2019-04-01T10:11:40.787Z,2.70
2019-04-01T10:14:08.463Z,3.08
2019-04-01T10:16:36.182Z,2.43
2019-04-01T10:19:04.115Z,2.60
2019-04-01T10:21:31.586Z,2.47
2019-04-01T10:23:59.031Z,3.27
2019-04-01T10:26:26.602Z,2.33
2019-04-01T10:28:54.174Z,2.47
2019-04-01T10:31:21.755Z,2.10
2019-04-01T10:33:49.331Z,2.00
2019-04-01T10:36:16.847Z,2.37
2019-04-01T10:38:46.884Z,1.77
2019-04-01T10:41:14.573Z,2.40
2019-04-01T10:43:42.270Z,2.10
2019-04-01T10:46:12.265Z,2.00
2019-04-01T10:48:40.673Z,2.07
2019-04-01T10:51:08.243Z,2.90
2019-04-01T10:53:35.794Z,2.50
2019-04-01T10:56:03.767Z,2.20
2019-04-01T10:58:31.568Z,2.10
2019-04-01T11:00:59.242Z,2.90
2019-04-01T11:03:26.861Z,2.10
2019-04-01T11:05:54.707Z,2.00
2019-04-01T11:08:22.722Z,2.47
2019-04-01T11:10:50.807Z,2.17
2019-04-01T11:13:18.433Z,2.50
2019-04-01T11:15:46.213Z,2.27
2019-04-01T11:18:13.814Z,2.03
2019-04-01T11:20:41.358Z,1.70
2019-04-01T11:23:09.162Z,1.90
2019-04-01T11:25:36.794Z,1.80
2019-04-01T11:28:04.461Z,2.30
2019-04-01T11:30:32.401Z,2.33
2019-04-01T11:32:59.983Z,1.80
2019-04-01T11:35:27.658Z,1.93
2019-04-01T11:37:55.492Z,1.83
2019-04-01T11:40:23.069Z,2.00
2019-04-01T11:42:50.901Z,1.80
2019-04-01T11:45:18.389Z,2.00
2019-04-01T11:47:46.016Z,2.10
2019-04-01T11:50:13.777Z,1.87
2019-04-01T11:52:41.769Z,1.77
2019-04-01T11:55:09.813Z,2.27
2019-04-01T11:57:37.372Z,2.30
2019-04-01T12:00:12.417Z,2.77
2019-04-01T12:02:39.734Z,2.40
2019-04-01T12:05:07.507Z,2.40
2019-04-01T12:07:35.000Z,2.10
2019-04-01T12:10:02.559Z,2.13
2019-04-01T12:12:31.912Z,2.43
2019-04-01T12:14:59.613Z,2.20
2019-04-01T12:17:27.237Z,2.87
2019-04-01T12:19:54.840Z,2.30
2019-04-01T12:22:22.413Z,3.73
2019-04-01T12:24:52.610Z,2.37
2019-04-01T12:27:20.247Z,2.73
2019-04-01T12:29:48.427Z,3.00
2019-04-01T12:32:16.172Z,1.87
2019-04-01T12:34:43.737Z,2.20
2019-04-01T12:37:11.236Z,1.53
2019-04-01T12:39:38.971Z,2.00
2019-04-01T12:42:06.440Z,1.90
2019-04-01T12:44:34.019Z,2.20
2019-04-01T12:47:01.697Z,2.35
2019-04-01T12:49:29.334Z,1.83
2019-04-01T12:51:58.496Z,2.80
2019-04-01T12:54:26.348Z,2.70
2019-04-01T12:56:53.961Z,2.30
2019-04-01T12:59:21.630Z,1.87
2019-04-01T13:01:49.684Z,2.20
2019-04-01T13:04:17.787Z,1.80
2019-04-01T13:06:45.564Z,2.33
2019-04-01T13:09:13.252Z,1.70
2019-04-01T13:11:41.215Z,1.63
2019-04-01T13:14:08.779Z,2.33
2019-04-01T13:16:36.233Z,2.07
2019-04-01T13:19:03.778Z,2.17
2019-04-01T13:21:34.496Z,2.13
2019-04-01T13:24:00.691Z,1.83
2019-04-01T13:26:28.298Z,1.40
2019-04-01T13:28:56.122Z,2.10
2019-04-01T13:31:24.010Z,1.50
2019-04-01T13:33:51.862Z,1.90
2019-04-01T13:36:21.089Z,1.80
2019-04-01T13:38:48.851Z,2.12
2019-04-01T13:41:16.515Z,2.23
2019-04-01T13:43:44.589Z,1.80
2019-04-01T13:46:12.212Z,1.73
2019-04-01T13:48:41.067Z,2.40
2019-04-01T13:51:08.667Z,1.63
2019-04-01T13:53:36.279Z,1.80
2019-04-01T13:56:03.967Z,2.03
2019-04-01T13:58:31.663Z,1.70
2019-04-01T14:00:59.203Z,1.50
2019-04-01T14:03:26.668Z,1.50
2019-04-01T14:05:55.347Z,1.70
2019-04-01T14:08:22.840Z,1.70
2019-04-01T14:10:50.333Z,2.00
2019-04-01T14:13:18.475Z,1.77
2019-04-01T14:15:46.085Z,1.60
2019-04-01T14:18:13.658Z,1.67
2019-04-01T14:20:41.309Z,1.70
2019-04-01T14:23:08.931Z,1.60
2019-04-01T14:25:36.861Z,1.80
2019-04-01T14:28:04.446Z,1.90
2019-04-01T14:30:32.093Z,1.80
2019-04-01T14:32:59.667Z,2.40
2019-04-01T14:35:27.282Z,1.90
2019-04-01T14:37:58.057Z,2.40
2019-04-01T14:40:24.218Z,2.20
2019-04-01T14:42:54.864Z,1.63
2019-04-01T14:45:22.532Z,3.10
2019-04-01T14:47:56.999Z,2.20
2019-04-01T14:50:19.486Z,1.60
2019-04-01T14:52:47.338Z,1.70
2019-04-01T14:55:14.763Z,1.90
2019-04-01T14:57:42.580Z,1.60
2019-04-01T15:00:11.798Z,1.30
2019-04-01T15:02:39.534Z,2.13
2019-04-01T15:05:06.964Z,1.37
2019-04-01T15:07:34.471Z,1.87
2019-04-01T15:10:01.874Z,1.43
2019-04-01T15:12:30.758Z,1.60
2019-04-01T15:14:58.344Z,1.40
2019-04-01T15:17:25.842Z,1.40
2019-04-01T15:19:53.401Z,1.63
2019-04-01T15:22:21.871Z,1.53
2019-04-01T15:24:50.371Z,4.53
2019-04-01T15:27:18.092Z,2.60
2019-04-01T15:29:45.713Z,4.23
2019-04-01T15:32:13.258Z,2.30
2019-04-01T15:34:40.873Z,1.80
2019-04-01T15:37:08.435Z,1.70
2019-04-01T15:39:35.879Z,1.83
2019-04-01T15:42:03.546Z,1.93
2019-04-01T15:44:33.830Z,1.60
2019-04-01T15:47:04.310Z,1.87
2019-04-01T15:49:30.842Z,1.27
2019-04-01T15:51:58.287Z,1.70
2019-04-01T15:54:26.156Z,1.40
2019-04-01T15:56:57.435Z,1.50
2019-04-01T15:59:26.087Z,1.43
2019-04-01T16:01:53.594Z,1.67
2019-04-01T16:04:21.035Z,1.23
2019-04-01T16:06:48.644Z,1.50
2019-04-01T16:09:16.323Z,1.10
2019-04-01T16:11:43.943Z,1.37
2019-04-01T16:14:11.611Z,2.00
2019-04-01T16:16:39.244Z,1.40
2019-04-01T16:19:06.762Z,2.10
2019-04-01T16:21:34.298Z,2.30
2019-04-01T16:24:01.893Z,1.77
2019-04-01T16:26:29.595Z,1.40
2019-04-01T16:28:58.258Z,1.60
2019-04-01T16:31:27.063Z,1.97
2019-04-01T16:33:54.981Z,1.80
2019-04-01T16:36:22.614Z,1.90
2019-04-01T16:38:50.210Z,1.82
2019-04-01T16:41:17.780Z,2.00
2019-04-01T16:43:46.235Z,2.50
2019-04-01T16:46:13.991Z,2.20
2019-04-01T16:48:41.678Z,1.80
2019-04-01T16:51:09.243Z,1.60
2019-04-01T16:53:36.940Z,1.70
2019-04-01T16:56:05.226Z,1.60
2019-04-01T16:58:33.075Z,1.77
2019-04-01T17:01:02.499Z,1.60
2019-04-01T17:03:29.802Z,1.80
2019-04-01T17:05:57.303Z,2.03
2019-04-01T17:08:25.489Z,3.00
2019-04-01T17:10:55.809Z,1.67
2019-04-01T17:13:23.564Z,1.90
2019-04-01T17:15:51.069Z,1.77
2019-04-01T17:18:18.588Z,2.20
2019-04-01T17:20:46.613Z,2.73
2019-04-01T17:23:14.270Z,2.30
2019-04-01T17:25:41.762Z,1.87
2019-04-01T17:28:09.205Z,1.50
2019-04-01T17:30:36.905Z,1.30
2019-04-01T17:33:08.102Z,1.23
2019-04-01T17:35:34.428Z,2.00
2019-04-01T17:38:01.878Z,2.07
2019-04-01T17:40:30.607Z,1.47
2019-04-01T17:42:58.061Z,1.53
2019-04-01T17:45:34.905Z,1.40
2019-04-01T17:48:04.370Z,2.80
2019-04-01T17:50:32.151Z,2.40
2019-04-01T17:53:01.251Z,2.67
2019-04-01T17:55:28.726Z,3.47
2019-04-01T17:57:56.295Z,3.33
2019-04-01T18:00:25.236Z,5.17
2019-04-01T18:02:54.887Z,4.00
2019-04-01T18:05:22.574Z,2.70
2019-04-01T18:07:50.215Z,2.57
2019-04-01T18:10:17.727Z,2.17
2019-04-01T18:12:48.989Z,2.30
2019-04-01T18:15:20.591Z,2.20
2019-04-01T18:17:48.133Z,2.10
2019-04-01T18:20:19.880Z,2.43
2019-04-01T18:22:46.867Z,2.17
2019-04-01T18:25:15.192Z,2.20
2019-04-01T18:27:44.242Z,2.73
2019-04-01T18:30:14.425Z,2.27
2019-04-01T18:32:42.301Z,2.93
2019-04-01T18:35:11.080Z,2.13
2019-04-01T18:37:39.054Z,1.93
2019-04-01T18:40:06.800Z,3.27
2019-04-01T18:42:34.836Z,2.30
2019-04-01T18:45:02.426Z,4.30
2019-04-01T18:47:30.326Z,2.00
2019-04-01T18:49:57.861Z,2.10
2019-04-01T18:52:25.538Z,2.47
2019-04-01T18:54:53.830Z,2.70
2019-04-01T18:57:21.339Z,2.23
2019-04-01T18:59:49.969Z,2.70
2019-04-01T19:02:17.871Z,2.50
2019-04-01T19:04:45.488Z,2.57
2019-04-01T19:07:15.742Z,1.80
2019-04-01T19:09:43.337Z,2.60
2019-04-01T19:12:12.016Z,1.70
2019-04-01T19:14:41.674Z,1.83
2019-04-01T19:17:10.459Z,1.97
2019-04-01T19:19:40.293Z,2.00
2019-04-01T19:22:08.070Z,2.40
2019-04-01T19:24:35.511Z,2.03
2019-04-01T19:27:04.159Z,2.60
2019-04-01T19:29:31.774Z,2.10
2019-04-01T19:31:59.214Z,2.00
2019-04-01T19:34:26.867Z,2.40
2019-04-01T19:36:55.551Z,2.30
2019-04-01T19:39:23.237Z,2.60
2019-04-01T19:41:51.185Z,2.60
2019-04-01T19:44:18.663Z,2.20
2019-04-01T19:46:46.390Z,2.30
2019-04-01T19:49:14.473Z,2.30
2019-04-01T19:51:41.992Z,2.30
2019-04-01T19:54:09.667Z,3.02
2019-04-01T19:56:37.285Z,2.63
2019-04-01T19:59:06.055Z,3.70
2019-04-01T20:01:33.890Z,2.97
2019-04-01T20:04:01.674Z,2.20
2019-04-01T20:06:29.844Z,2.30
2019-04-01T20:08:57.639Z,2.07
2019-04-01T20:11:25.251Z,1.90
2019-04-01T20:13:54.972Z,2.17
2019-04-01T20:16:22.547Z,2.13
2019-04-01T20:18:51.551Z,1.80
2019-04-01T20:21:28.551Z,2.00
2019-04-01T20:23:56.063Z,2.57
2019-04-01T20:26:24.953Z,2.60
2019-04-01T20:28:58.881Z,2.00
2019-04-01T20:31:24.134Z,2.20
2019-04-01T20:33:51.763Z,2.30
2019-04-01T20:36:28.517Z,2.07
2019-04-01T20:38:48.909Z,2.20
2019-04-01T20:41:20.238Z,2.37
2019-04-01T20:43:50.011Z,2.33
2019-04-01T20:46:17.646Z,2.83
2019-04-01T20:48:45.267Z,2.20
2019-04-01T20:51:18.094Z,2.37
2019-04-01T20:53:47.136Z,3.03
2019-04-01T20:56:15.554Z,2.90
2019-04-01T20:58:44.595Z,3.93
2019-04-01T21:01:12.145Z,3.00
2019-04-01T21:03:40.214Z,2.73
2019-04-01T21:06:07.660Z,2.67
2019-04-01T21:08:37.882Z,3.07
2019-04-01T21:11:04.811Z,2.70
2019-04-01T21:13:32.315Z,2.90
2019-04-01T21:16:01.263Z,3.30
2019-04-01T21:18:28.959Z,4.57
2019-04-01T21:20:56.519Z,3.27
2019-04-01T21:23:23.960Z,4.10
2019-04-01T21:26:04.142Z,4.20
2019-04-01T21:28:32.055Z,3.60
2019-04-01T21:30:59.800Z,3.90
2019-04-01T21:33:27.695Z,3.70
2019-04-01T21:35:55.397Z,3.50
2019-04-01T21:38:22.945Z,3.13
2019-04-01T21:40:50.554Z,2.80
2019-04-01T21:43:20.089Z,3.20
2019-04-01T21:45:47.974Z,3.00
2019-04-01T21:48:15.754Z,2.83
2019-04-01T21:50:43.449Z,2.63
2019-04-01T21:53:11.288Z,3.03
2019-04-01T21:55:38.859Z,2.73
2019-04-01T21:58:06.610Z,2.73
2019-04-01T22:00:40.868Z,2.60
2019-04-01T22:03:09.948Z,2.90
2019-04-01T22:05:37.633Z,3.10
2019-04-01T22:08:05.198Z,3.00
2019-04-01T22:10:32.778Z,2.63
2019-04-01T22:13:02.373Z,2.20
2019-04-01T22:15:29.858Z,2.07
2019-04-01T22:17:57.564Z,2.70
2019-04-01T22:20:25.874Z,2.03
2019-04-01T22:23:13.669Z,2.60
2019-04-01T22:25:41.272Z,2.40
2019-04-01T22:28:09.333Z,2.30
2019-04-01T22:30:37.184Z,2.33
2019-04-01T22:33:04.894Z,2.17
2019-04-01T22:35:38.424Z,2.23
2019-04-01T22:38:03.506Z,2.30
2019-04-01T22:40:31.494Z,2.40
2019-04-01T22:42:59.450Z,2.00
2019-04-01T22:45:27.023Z,2.20
2019-04-01T22:47:54.708Z,2.17
2019-04-01T22:50:22.722Z,1.90
2019-04-01T22:52:50.330Z,2.00
2019-04-01T22:55:18.240Z,2.00
2019-04-01T22:57:45.834Z,2.40
2019-04-01T23:00:13.897Z,1.87
2019-04-01T23:02:43.415Z,1.87
2019-04-01T23:05:12.055Z,2.20
2019-04-01T23:07:39.603Z,1.83
2019-04-01T23:10:07.333Z,1.77
2019-04-01T23:12:34.928Z,2.30
2019-04-01T23:15:03.134Z,2.00
2019-04-01T23:17:31.894Z,2.67
2019-04-01T23:19:59.869Z,2.03
2019-04-01T23:22:29.075Z,1.90
2019-04-01T23:24:57.883Z,1.70
2019-04-01T23:27:25.902Z,2.53
2019-04-01T23:29:53.506Z,2.40
2019-04-01T23:32:21.393Z,2.20
2019-04-01T23:34:48.906Z,2.00
2019-04-01T23:37:16.431Z,1.77
2019-04-01T23:39:44.158Z,1.83
2019-04-01T23:42:12.665Z,1.60
2019-04-01T23:44:40.253Z,2.00
2019-04-01T23:47:08.049Z,1.57
2019-04-01T23:49:35.574Z,2.00
2019-04-01T23:52:05.312Z,2.07
2019-04-01T23:54:32.944Z,2.03
2019-04-01T23:57:00.455Z,2.00
2019-04-01T23:59:28.145Z,1.87
